createdAt,value
2023-04-27T00:00:26.326Z,70.43
2023-04-27T00:02:56.334Z,70.57
2023-04-27T00:05:26.704Z,70.96
2023-04-27T00:07:59.074Z,70.69
2023-04-27T00:10:28.803Z,70.42
2023-04-27T00:12:58.527Z,70.40
2023-04-27T00:15:28.431Z,71.05
2023-04-27T00:17:58.527Z,70.68
2023-04-27T00:20:28.653Z,70.50
2023-04-27T00:23:00.987Z,70.65
2023-04-27T00:25:30.773Z,70.62
2023-04-27T00:28:00.525Z,70.85
2023-04-27T00:30:30.361Z,70.15
2023-04-27T00:33:00.179Z,70.07
2023-04-27T00:35:30.049Z,70.19
2023-04-27T00:38:04.089Z,69.40
2023-04-27T00:40:34.087Z,69.84
2023-04-27T00:43:03.914Z,70.36
2023-04-27T00:45:33.845Z,70.89
2023-04-27T00:48:04.249Z,70.59
2023-04-27T00:50:34.360Z,70.36
2023-04-27T00:53:06.698Z,70.63
2023-04-27T00:55:36.452Z,70.88
2023-04-27T00:58:06.231Z,71.04
2023-04-27T01:00:40.207Z,71.22
2023-04-27T01:03:10.447Z,71.51
2023-04-27T01:05:40.998Z,71.20
2023-04-27T01:08:13.621Z,71.50
2023-04-27T01:10:43.528Z,71.23
2023-04-27T01:13:13.740Z,71.96
2023-04-27T01:15:44.147Z,71.86
2023-04-27T01:18:13.968Z,71.46
2023-04-27T01:20:45.229Z,71.61
2023-04-27T01:23:19.200Z,71.52
2023-04-27T01:25:48.941Z,71.98
2023-04-27T01:28:18.691Z,71.67
2023-04-27T01:30:48.421Z,71.73
2023-04-27T01:33:18.177Z,71.85
2023-04-27T01:35:51.498Z,71.73
2023-04-27T01:38:24.321Z,71.79
2023-04-27T01:40:55.415Z,71.61
2023-04-27T01:43:25.168Z,72.12
2023-04-27T01:45:54.913Z,72.58
2023-04-27T01:48:24.744Z,73.49
2023-04-27T01:50:54.736Z,73.64
2023-04-27T01:53:27.050Z,73.79
2023-04-27T01:55:57.393Z,74.13
2023-04-27T01:58:27.905Z,74.56
2023-04-27T02:00:57.772Z,74.76
2023-04-27T02:03:27.692Z,74.22
2023-04-27T02:05:57.617Z,74.59
2023-04-27T02:08:29.993Z,74.70
2023-04-27T02:10:59.749Z,74.57
2023-04-27T02:13:29.530Z,74.80
2023-04-27T02:16:02.279Z,74.36
2023-04-27T02:18:32.619Z,74.06
2023-04-27T02:21:02.470Z,73.75
2023-04-27T02:23:35.830Z,73.62
2023-04-27T02:26:06.461Z,73.76
2023-04-27T02:28:36.238Z,73.46
2023-04-27T02:31:06.515Z,73.20
2023-04-27T02:33:36.276Z,73.04
2023-04-27T02:36:06.434Z,73.36
2023-04-27T02:38:38.821Z,73.30
2023-04-27T02:41:08.609Z,73.99
2023-04-27T02:43:38.343Z,73.73
2023-04-27T02:46:09.809Z,73.95
2023-04-27T02:48:39.654Z,73.92
2023-04-27T02:51:09.775Z,74.23
2023-04-27T02:53:42.144Z,74.22
2023-04-27T02:56:11.910Z,74.56
2023-04-27T02:58:41.636Z,74.67
2023-04-27T03:01:11.695Z,74.34
2023-04-27T03:03:41.665Z,74.61
2023-04-27T03:06:11.529Z,74.70
2023-04-27T03:08:43.959Z,74.63
2023-04-27T03:11:13.748Z,75.84
2023-04-27T03:13:44.543Z,75.38
2023-04-27T03:16:14.776Z,75.43
2023-04-27T03:18:44.580Z,75.30
2023-04-27T03:21:17.051Z,75.27
2023-04-27T03:23:49.419Z,75.06
2023-04-27T03:26:20.551Z,75.00
2023-04-27T03:28:50.296Z,75.51
2023-04-27T03:31:20.063Z,75.66
2023-04-27T03:33:49.836Z,75.51
2023-04-27T03:36:19.566Z,75.32
2023-04-27T03:38:51.863Z,75.28
2023-04-27T03:41:22.289Z,75.63
2023-04-27T03:43:53.647Z,76.04
2023-04-27T03:46:26.650Z,75.74
2023-04-27T03:48:56.436Z,75.67
2023-04-27T03:51:27.188Z,75.46
2023-04-27T03:53:59.514Z,75.62
2023-04-27T03:56:29.369Z,76.00
2023-04-27T03:58:59.276Z,76.13
2023-04-27T04:01:36.537Z,76.28
2023-04-27T04:04:06.406Z,75.63
2023-04-27T04:06:36.560Z,75.62
2023-04-27T04:09:08.917Z,75.51
2023-04-27T04:11:38.942Z,76.30
2023-04-27T04:14:10.022Z,75.98
2023-04-27T04:16:39.854Z,76.15
2023-04-27T04:19:09.659Z,76.27
2023-04-27T04:21:39.861Z,75.97
2023-04-27T04:24:13.731Z,76.79
2023-04-27T04:26:43.518Z,76.46
2023-04-27T04:29:13.731Z,76.60
2023-04-27T04:31:43.827Z,76.38
2023-04-27T04:34:14.675Z,76.25
2023-04-27T04:36:44.552Z,76.32
2023-04-27T04:39:17.446Z,76.04
2023-04-27T04:41:47.415Z,76.53
2023-04-27T04:44:17.269Z,77.04
2023-04-27T04:46:48.062Z,77.17
2023-04-27T04:49:17.853Z,76.87
2023-04-27T04:51:48.154Z,76.43
2023-04-27T04:54:20.532Z,75.61
2023-04-27T04:56:51.120Z,75.70
2023-04-27T04:59:21.520Z,74.89
2023-04-27T05:01:51.372Z,74.66
2023-04-27T05:04:21.508Z,74.36
2023-04-27T05:06:51.398Z,74.09
2023-04-27T05:09:23.711Z,73.94
2023-04-27T05:11:53.428Z,73.65
2023-04-27T05:14:23.182Z,73.11
2023-04-27T05:16:52.918Z,73.72
2023-04-27T05:19:22.717Z,73.65
2023-04-27T05:21:52.472Z,73.19
2023-04-27T05:24:24.814Z,72.93
2023-04-27T05:26:54.590Z,73.30
2023-04-27T05:29:24.782Z,73.09
2023-04-27T05:31:54.611Z,72.90
2023-04-27T05:34:24.441Z,72.70
2023-04-27T05:36:54.190Z,72.68
2023-04-27T05:39:26.563Z,72.91
2023-04-27T05:41:56.457Z,73.11
2023-04-27T05:44:29.491Z,73.07
2023-04-27T05:46:59.316Z,72.97
2023-04-27T05:49:29.062Z,72.69
2023-04-27T05:51:59.236Z,71.89
2023-04-27T05:54:31.937Z,71.67
2023-04-27T05:57:01.765Z,71.25
2023-04-27T05:59:31.684Z,71.14
2023-04-27T06:02:01.515Z,70.31
2023-04-27T06:04:33.007Z,69.06
2023-04-27T06:07:04.264Z,68.97
2023-04-27T06:09:36.967Z,67.69
2023-04-27T06:12:07.358Z,67.16
2023-04-27T06:14:39.789Z,66.52
2023-04-27T06:17:09.547Z,65.64
2023-04-27T06:19:39.447Z,64.35
2023-04-27T06:22:09.186Z,64.17
2023-04-27T06:24:42.707Z,64.28
2023-04-27T06:27:13.363Z,63.73
2023-04-27T06:29:43.129Z,61.90
2023-04-27T06:32:12.890Z,61.04
2023-04-27T06:34:42.709Z,61.36
2023-04-27T06:37:12.545Z,60.82
2023-04-27T06:39:44.917Z,61.26
2023-04-27T06:42:14.860Z,60.32
2023-04-27T06:44:45.068Z,58.68
2023-04-27T06:47:14.854Z,58.79
2023-04-27T06:49:44.584Z,59.39
2023-04-27T06:52:14.362Z,59.16
2023-04-27T06:54:46.959Z,57.44
2023-04-27T06:57:16.798Z,58.26
2023-04-27T06:59:46.600Z,59.38
2023-04-27T07:02:16.431Z,58.98
2023-04-27T07:04:46.769Z,58.82
2023-04-27T07:07:16.592Z,59.35
2023-04-27T07:09:48.942Z,59.75
2023-04-27T07:12:18.799Z,60.13
2023-04-27T07:14:50.870Z,59.12
2023-04-27T07:17:20.917Z,59.37
2023-04-27T07:19:50.760Z,58.80
2023-04-27T07:22:20.786Z,59.04
2023-04-27T07:24:53.473Z,59.22
2023-04-27T07:27:23.333Z,59.58
2023-04-27T07:29:53.507Z,58.80
2023-04-27T07:32:24.017Z,58.51
2023-04-27T07:34:54.542Z,58.90
2023-04-27T07:37:24.604Z,59.67
2023-04-27T07:39:57.898Z,58.86
2023-04-27T07:42:27.905Z,57.59
2023-04-27T07:44:57.732Z,58.18
2023-04-27T07:47:28.271Z,57.74
2023-04-27T07:49:58.133Z,57.67
2023-04-27T07:52:27.940Z,58.75
2023-04-27T07:55:00.255Z,58.35
2023-04-27T07:57:30.194Z,58.03
2023-04-27T08:00:00.330Z,58.13
2023-04-27T08:02:31.873Z,56.83
2023-04-27T08:05:03.121Z,56.58
2023-04-27T08:07:34.632Z,56.71
2023-04-27T08:10:11.126Z,55.93
2023-04-27T08:12:40.927Z,55.72
2023-04-27T08:15:12.231Z,55.67
2023-04-27T08:17:43.803Z,54.86
2023-04-27T08:20:14.799Z,55.12
2023-04-27T08:22:44.998Z,55.93
2023-04-27T08:25:17.347Z,55.75
2023-04-27T08:27:47.118Z,56.27
2023-04-27T08:30:17.400Z,55.31
2023-04-27T08:32:47.887Z,54.47
2023-04-27T08:35:17.869Z,55.21
2023-04-27T08:37:47.629Z,54.39
2023-04-27T08:40:20.614Z,54.26
2023-04-27T08:42:58.003Z,54.55
2023-04-27T08:45:28.997Z,54.95
2023-04-27T08:47:58.780Z,55.23
2023-04-27T08:50:28.824Z,54.48
2023-04-27T08:52:58.695Z,55.32
2023-04-27T08:55:31.160Z,53.66
2023-04-27T08:58:01.880Z,51.42
2023-04-27T09:00:42.386Z,51.22
2023-04-27T09:03:22.362Z,50.52
2023-04-27T09:06:03.444Z,51.04
2023-04-27T09:08:44.621Z,49.39
2023-04-27T09:11:17.280Z,48.79
2023-04-27T09:13:47.903Z,48.75
2023-04-27T09:16:17.771Z,49.96
2023-04-27T09:18:47.520Z,51.35
2023-04-27T09:21:25.878Z,51.26
2023-04-27T09:23:56.545Z,51.86
2023-04-27T09:26:32.008Z,51.80
2023-04-27T09:29:01.768Z,50.92
2023-04-27T09:31:34.610Z,50.00
2023-04-27T09:34:05.200Z,51.13
2023-04-27T09:36:35.146Z,50.96
2023-04-27T09:39:07.323Z,49.68
2023-04-27T09:41:39.820Z,49.45
2023-04-27T09:44:11.238Z,48.82
2023-04-27T09:46:41.335Z,48.72
2023-04-27T09:49:11.812Z,49.50
2023-04-27T09:51:41.746Z,48.88
2023-04-27T09:54:14.026Z,49.60
2023-04-27T09:56:54.029Z,48.09
2023-04-27T09:59:39.330Z,50.03
2023-04-27T10:02:23.587Z,49.56
2023-04-27T10:05:19.660Z,48.46
2023-04-27T10:07:49.892Z,47.73
2023-04-27T10:10:20.925Z,48.07
2023-04-27T10:13:04.562Z,46.89
2023-04-27T10:15:34.495Z,46.97
2023-04-27T10:18:08.879Z,50.32
2023-04-27T10:20:41.114Z,45.61
2023-04-27T10:23:10.912Z,45.57
2023-04-27T10:25:42.148Z,45.30
2023-04-27T10:28:20.767Z,43.43
2023-04-27T10:30:52.104Z,44.52
2023-04-27T10:33:25.328Z,44.91
2023-04-27T10:36:00.555Z,45.06
2023-04-27T10:38:33.277Z,45.69
2023-04-27T10:41:05.820Z,46.06
2023-04-27T10:43:39.189Z,46.36
2023-04-27T10:46:14.512Z,45.31
2023-04-27T10:48:44.557Z,45.35
2023-04-27T10:51:18.518Z,44.15
2023-04-27T10:53:48.286Z,43.67
2023-04-27T10:56:20.381Z,42.68
2023-04-27T10:58:52.829Z,42.50
2023-04-27T11:01:29.949Z,42.26
2023-04-27T11:04:00.954Z,42.18
2023-04-27T11:06:32.308Z,43.17
2023-04-27T11:09:02.384Z,42.96
2023-04-27T11:11:40.092Z,44.40
2023-04-27T11:14:12.648Z,44.66
2023-04-27T11:16:49.102Z,44.69
2023-04-27T11:19:18.835Z,43.98
2023-04-27T11:21:48.583Z,44.18
2023-04-27T11:24:18.326Z,44.05
2023-04-27T11:26:54.950Z,43.23
2023-04-27T11:29:27.336Z,43.63
2023-04-27T11:31:57.090Z,43.43
2023-04-27T11:34:28.003Z,43.44
2023-04-27T11:37:16.700Z,41.90
2023-04-27T11:39:48.674Z,43.08
2023-04-27T11:42:20.829Z,41.56
2023-04-27T11:45:01.909Z,41.54
2023-04-27T11:47:33.988Z,42.31
2023-04-27T11:50:05.271Z,44.18
2023-04-27T11:52:36.792Z,42.11
2023-04-27T11:55:09.166Z,42.73
2023-04-27T11:57:39.587Z,42.67
2023-04-27T12:00:14.751Z,43.81
2023-04-27T12:02:46.568Z,42.81
2023-04-27T12:05:17.517Z,42.18
2023-04-27T12:07:47.424Z,42.58
2023-04-27T12:10:17.370Z,41.77
2023-04-27T12:12:47.147Z,42.05
2023-04-27T12:15:19.715Z,41.70
2023-04-27T12:17:49.588Z,42.12
2023-04-27T12:20:19.578Z,41.83
2023-04-27T12:22:49.350Z,42.81
2023-04-27T12:25:19.911Z,41.07
2023-04-27T12:27:50.312Z,39.79
2023-04-27T12:30:23.230Z,40.01
2023-04-27T12:32:53.099Z,39.80
2023-04-27T12:35:22.931Z,39.88
2023-04-27T12:37:52.928Z,40.12
2023-04-27T12:40:23.440Z,39.47
2023-04-27T12:42:53.232Z,39.45
2023-04-27T12:45:25.582Z,40.02
2023-04-27T12:48:03.395Z,40.66
2023-04-27T12:50:34.531Z,40.34
2023-04-27T12:53:05.029Z,40.86
2023-04-27T12:55:34.934Z,40.79
2023-04-27T12:58:04.963Z,39.94
2023-04-27T13:00:37.359Z,41.04
2023-04-27T13:03:08.040Z,40.78
2023-04-27T13:05:38.459Z,42.16
2023-04-27T13:08:08.509Z,40.37
2023-04-27T13:10:38.293Z,41.20
2023-04-27T13:13:08.057Z,39.65
2023-04-27T13:15:40.657Z,39.70
2023-04-27T13:18:10.575Z,40.04
2023-04-27T13:20:40.338Z,40.58
2023-04-27T13:23:10.240Z,41.37
2023-04-27T13:25:39.973Z,40.42
2023-04-27T13:28:09.736Z,40.18
2023-04-27T13:30:42.079Z,39.97
2023-04-27T13:33:22.710Z,39.98
2023-04-27T13:35:53.762Z,40.70
2023-04-27T13:38:23.592Z,39.61
2023-04-27T13:40:53.299Z,39.45
2023-04-27T13:43:23.135Z,39.12
2023-04-27T13:45:57.215Z,38.66
2023-04-27T13:48:28.594Z,38.78
2023-04-27T13:50:58.729Z,39.58
2023-04-27T13:53:29.171Z,39.86
2023-04-27T13:56:00.780Z,39.66
2023-04-27T13:58:30.962Z,41.08
2023-04-27T14:01:03.465Z,40.30
2023-04-27T14:03:34.042Z,39.76
2023-04-27T14:06:04.315Z,39.39
2023-04-27T14:08:34.458Z,39.53
2023-04-27T14:11:04.306Z,38.92
2023-04-27T14:13:34.105Z,39.73
2023-04-27T14:16:06.882Z,39.76
2023-04-27T14:18:36.706Z,38.68
2023-04-27T14:21:07.547Z,38.68
2023-04-27T14:23:37.788Z,38.44
2023-04-27T14:26:07.858Z,38.54
2023-04-27T14:28:37.634Z,38.46
2023-04-27T14:31:09.963Z,38.31
2023-04-27T14:33:40.511Z,38.54
2023-04-27T14:36:10.733Z,37.43
2023-04-27T14:38:40.547Z,37.05
2023-04-27T14:41:10.879Z,37.29
2023-04-27T14:43:40.617Z,37.16
2023-04-27T14:48:49.855Z,36.98
2023-04-27T14:51:19.790Z,37.09
2023-04-27T14:53:49.558Z,38.29
2023-04-27T14:56:19.316Z,37.82
2023-04-27T14:58:49.050Z,38.20
2023-04-27T15:01:21.683Z,38.17
2023-04-27T15:03:53.246Z,38.19
2023-04-27T15:06:24.408Z,38.44
2023-04-27T15:08:54.162Z,37.72
2023-04-27T15:11:23.914Z,37.25
2023-04-27T15:13:53.713Z,37.27
2023-04-27T15:16:26.188Z,37.75
2023-04-27T15:18:55.929Z,38.00
2023-04-27T15:21:25.666Z,38.17
2023-04-27T15:23:55.485Z,37.90
2023-04-27T15:26:25.309Z,37.81
2023-04-27T15:28:55.164Z,37.43
2023-04-27T15:31:27.647Z,36.97
2023-04-27T15:33:57.434Z,37.89
2023-04-27T15:36:28.595Z,38.96
2023-04-27T15:38:58.358Z,40.19
2023-04-27T15:41:28.112Z,39.16
2023-04-27T15:43:57.861Z,40.40
2023-04-27T15:46:30.596Z,40.14
2023-04-27T15:49:00.367Z,39.95
2023-04-27T15:51:30.102Z,38.79
2023-04-27T15:53:59.874Z,38.92
2023-04-27T15:56:30.897Z,38.99
2023-04-27T15:59:01.016Z,39.05
2023-04-27T16:01:33.402Z,38.95
2023-04-27T16:04:03.391Z,38.44
2023-04-27T16:06:34.890Z,38.85
2023-04-27T16:09:09.817Z,40.07
2023-04-27T16:11:40.245Z,38.96
2023-04-27T16:14:09.967Z,39.60
2023-04-27T16:16:42.340Z,39.43
2023-04-27T16:19:12.474Z,39.32
2023-04-27T16:21:42.398Z,38.76
2023-04-27T16:24:12.604Z,40.12
2023-04-27T16:26:42.321Z,39.37
2023-04-27T16:29:12.237Z,40.22
2023-04-27T16:31:45.650Z,40.73
2023-04-27T16:34:15.506Z,39.99
2023-04-27T16:36:46.866Z,39.57
2023-04-27T16:39:19.050Z,39.68
2023-04-27T16:41:48.875Z,41.71
2023-04-27T16:44:18.916Z,40.30
2023-04-27T16:46:52.140Z,40.64
2023-04-27T16:49:21.943Z,41.58
2023-04-27T16:51:52.846Z,41.62
2023-04-27T16:54:22.664Z,41.60
2023-04-27T16:56:54.591Z,42.75
2023-04-27T16:59:25.079Z,43.35
2023-04-27T17:02:00.010Z,42.95
2023-04-27T17:04:40.120Z,43.43
2023-04-27T17:07:09.965Z,42.74
2023-04-27T17:09:40.104Z,42.54
2023-04-27T17:12:12.375Z,43.54
2023-04-27T17:14:42.740Z,43.54
2023-04-27T17:17:15.305Z,44.10
2023-04-27T17:19:45.038Z,45.81
2023-04-27T17:22:15.127Z,45.37
2023-04-27T17:24:44.897Z,44.36
2023-04-27T17:27:14.618Z,44.11
2023-04-27T17:29:44.430Z,43.84
2023-04-27T17:32:17.384Z,43.91
2023-04-27T17:34:47.182Z,44.08
2023-04-27T17:37:17.061Z,44.26
2023-04-27T17:39:47.585Z,44.47
2023-04-27T17:42:17.299Z,44.52
2023-04-27T17:44:47.032Z,45.08
2023-04-27T17:47:20.640Z,45.40
2023-04-27T17:49:50.351Z,45.90
2023-04-27T17:52:20.086Z,46.40
2023-04-27T17:54:49.849Z,46.87
2023-04-27T17:57:19.608Z,47.66
2023-04-27T17:59:50.164Z,47.56
2023-04-27T18:02:22.874Z,47.84
2023-04-27T18:04:53.021Z,47.10
2023-04-27T18:07:22.962Z,47.69
2023-04-27T18:09:52.772Z,47.00
2023-04-27T18:12:22.595Z,46.49
2023-04-27T18:14:53.138Z,46.68
2023-04-27T18:17:26.162Z,46.36
2023-04-27T18:20:07.521Z,47.01
2023-04-27T18:22:40.202Z,47.32
2023-04-27T18:25:12.023Z,48.07
2023-04-27T18:27:41.932Z,48.02
2023-04-27T18:30:12.029Z,48.34
2023-04-27T18:32:44.375Z,48.09
2023-04-27T18:35:14.160Z,48.16
2023-04-27T18:37:48.292Z,48.46
2023-04-27T18:40:18.978Z,49.12
2023-04-27T18:42:48.898Z,48.56
2023-04-27T18:45:18.842Z,49.19
2023-04-27T18:47:51.253Z,49.14
2023-04-27T18:50:21.144Z,49.55
2023-04-27T18:52:50.902Z,49.26
2023-04-27T18:55:20.929Z,49.66
2023-04-27T18:57:50.688Z,49.17
2023-04-27T19:00:20.512Z,48.96
2023-04-27T19:02:53.408Z,48.98
2023-04-27T19:05:23.367Z,49.14
2023-04-27T19:07:53.164Z,49.14
2023-04-27T19:10:23.937Z,49.54
2023-04-27T19:12:54.229Z,49.56
2023-04-27T19:15:24.280Z,49.54
2023-04-27T19:18:02.832Z,49.98
2023-04-27T19:20:39.578Z,50.06
2023-04-27T19:23:12.654Z,50.88
2023-04-27T19:25:43.141Z,50.21
2023-04-27T19:28:13.317Z,49.73
2023-04-27T19:30:43.471Z,49.89
2023-04-27T19:33:17.565Z,49.18
2023-04-27T19:35:49.151Z,49.42
2023-04-27T19:38:18.934Z,49.71
2023-04-27T19:40:49.974Z,49.71
2023-04-27T19:43:19.690Z,49.94
2023-04-27T19:45:49.693Z,49.98
2023-04-27T19:48:22.060Z,50.17
2023-04-27T19:50:51.865Z,50.10
2023-04-27T19:53:21.588Z,50.30
2023-04-27T19:55:51.530Z,50.59
2023-04-27T19:58:21.708Z,50.18
2023-04-27T20:00:51.620Z,50.51
2023-04-27T20:03:24.468Z,50.93
2023-04-27T20:05:54.571Z,51.26
2023-04-27T20:08:24.858Z,51.87
2023-04-27T20:10:54.614Z,52.01
2023-04-27T20:13:24.387Z,51.91
2023-04-27T20:15:54.265Z,52.22
2023-04-27T20:18:31.604Z,52.21
2023-04-27T20:21:01.654Z,52.74
2023-04-27T20:23:31.618Z,52.13
2023-04-27T20:26:01.377Z,51.46
2023-04-27T20:28:31.338Z,51.79
2023-04-27T20:31:01.102Z,52.00
2023-04-27T20:33:33.422Z,51.61
2023-04-27T20:36:14.260Z,51.71
2023-04-27T20:38:47.423Z,51.76
2023-04-27T20:41:17.276Z,51.92
2023-04-27T20:43:47.604Z,52.18
2023-04-27T20:46:17.401Z,51.97
2023-04-27T20:48:49.906Z,51.91
2023-04-27T20:51:19.663Z,52.19
2023-04-27T20:53:49.455Z,52.32
2023-04-27T20:56:20.305Z,52.68
2023-04-27T20:58:50.039Z,52.76
2023-04-27T21:01:19.895Z,53.98
2023-04-27T21:03:52.586Z,54.26
2023-04-27T21:06:22.487Z,53.97
2023-04-27T21:08:52.217Z,54.25
2023-04-27T21:11:22.238Z,54.49
2023-04-27T21:13:52.118Z,54.77
2023-04-27T21:16:22.019Z,55.06
2023-04-27T21:18:54.311Z,55.02
2023-04-27T21:21:24.577Z,54.83
2023-04-27T21:24:00.804Z,55.30
2023-04-27T21:26:36.819Z,55.10
2023-04-27T21:29:08.360Z,55.05
2023-04-27T21:31:38.345Z,54.75
2023-04-27T21:34:10.964Z,55.01
2023-04-27T21:36:40.692Z,55.09
2023-04-27T21:39:10.711Z,55.51
2023-04-27T21:41:41.232Z,55.36
2023-04-27T21:44:11.513Z,55.54
2023-04-27T21:46:41.415Z,55.68
2023-04-27T21:49:13.819Z,55.90
2023-04-27T21:51:43.615Z,56.33
2023-04-27T21:54:13.793Z,56.06
2023-04-27T21:56:43.848Z,56.21
2023-04-27T21:59:13.604Z,56.16
2023-04-27T22:01:44.062Z,56.95
2023-04-27T22:04:16.979Z,56.81
2023-04-27T22:06:47.099Z,57.30
2023-04-27T22:09:17.111Z,57.14
2023-04-27T22:11:47.057Z,56.94
2023-04-27T22:14:17.360Z,57.46
2023-04-27T22:16:49.008Z,57.83
2023-04-27T22:19:21.383Z,58.42
2023-04-27T22:21:51.149Z,58.84
2023-04-27T22:24:20.917Z,59.26
2023-04-27T22:26:50.994Z,59.06
2023-04-27T22:29:20.870Z,59.90
2023-04-27T22:31:50.747Z,59.52
2023-04-27T22:34:23.157Z,58.89
2023-04-27T22:36:53.015Z,59.45
2023-04-27T22:39:22.823Z,59.90
2023-04-27T22:41:52.661Z,61.02
2023-04-27T22:44:22.419Z,61.95
2023-04-27T22:46:52.307Z,61.91
2023-04-27T22:49:24.823Z,62.01
2023-04-27T22:51:57.789Z,62.71
2023-04-27T22:54:27.560Z,63.74
2023-04-27T22:56:58.776Z,64.15
2023-04-27T22:59:28.594Z,64.14
2023-04-27T23:01:58.499Z,64.59
2023-04-27T23:04:31.062Z,64.16
2023-04-27T23:07:00.825Z,64.85
2023-04-27T23:09:31.162Z,64.13
2023-04-27T23:12:01.256Z,64.76
2023-04-27T23:14:31.551Z,65.29
2023-04-27T23:17:01.979Z,65.74
2023-04-27T23:19:34.383Z,65.97
2023-04-27T23:22:04.399Z,66.41
2023-04-27T23:24:34.154Z,66.36
2023-04-27T23:27:04.030Z,66.92
2023-04-27T23:29:33.802Z,67.55
2023-04-27T23:32:04.710Z,67.42
2023-04-27T23:34:37.197Z,66.96
2023-04-27T23:37:07.814Z,67.12
2023-04-27T23:39:37.639Z,66.13
2023-04-27T23:42:07.787Z,65.77
2023-04-27T23:44:37.785Z,65.94
2023-04-27T23:47:07.793Z,65.59
2023-04-27T23:49:40.218Z,65.42
2023-04-27T23:52:10.007Z,65.48
2023-04-27T23:54:39.813Z,66.76
2023-04-27T23:57:09.657Z,67.05
2023-04-27T23:59:39.712Z,67.45
